Terminal Aerodrome Forecast
Issued by NWS Central Illinois

Home | Current Version | Previous Version | Text Only | Print | Product List | Glossary On
Versions: 1 2 3 4 5 6 7 8 9 10 11 12 13 14 15 16 17 18 19 20 21 22 23 24 25 26 27
000
FTUS43 KILX 021200 AAD
TAFSPI
TAF AMD
KSPI 021255Z 0213/0312 17010KT P6SM VCSH SCT007 BKN100
     FM021500 18012KT 6SM -RA VCTS OVC050CB
      TEMPO 0216/0218 2SM TSRA OVC015CB
     FM022300 21006KT 5SM SHRA BR VCTS OVC015CB
      TEMPO 0300/0303 1SM +TSRA OVC006CB
     FM030700 23012KT P6SM VCSH OVC015=

USA.gov is the U.S. government's official web portal to all federal, state and local government web resources and services.